createdAt,value
2018-11-21T00:07:26.160Z,56.6
2018-11-21T00:17:25.367Z,57.3
2018-11-21T00:27:24.628Z,58
2018-11-21T00:37:23.786Z,58.7
2018-11-21T00:47:22.989Z,59.4
2018-11-21T00:57:23.528Z,60.1
2018-11-21T01:07:21.403Z,60.2
2018-11-21T01:17:20.613Z,60
2018-11-21T01:27:19.816Z,60.1
2018-11-21T01:37:19.026Z,60.3
2018-11-21T01:47:18.230Z,60.1
2018-11-21T01:57:17.438Z,59.9
2018-11-21T02:07:16.647Z,60
2018-11-21T02:17:15.848Z,60.1
2018-11-21T02:27:15.056Z,60.1
2018-11-21T02:37:14.266Z,60
2018-11-21T02:47:13.468Z,60.1
2018-11-21T02:57:12.681Z,60.1
2018-11-21T03:07:11.885Z,60.1
2018-11-21T03:17:11.093Z,60
2018-11-21T03:27:10.297Z,59.9
2018-11-21T03:37:09.506Z,58.7
2018-11-21T03:47:08.716Z,56.2
2018-11-21T03:57:07.924Z,55.4
2018-11-21T04:07:07.124Z,55.4
2018-11-21T04:17:06.327Z,55.4
2018-11-21T04:27:05.538Z,55.1
2018-11-21T04:37:04.748Z,54.6
2018-11-21T04:47:03.954Z,53.9
2018-11-21T04:57:03.161Z,53.8
2018-11-21T05:07:02.365Z,52.6
2018-11-21T05:17:01.574Z,52.5
2018-11-21T05:27:00.792Z,51.1
2018-11-21T05:36:59.995Z,51.3
2018-11-21T05:46:59.199Z,51.2
2018-11-21T05:56:58.412Z,51.4
2018-11-21T06:06:57.624Z,51.3
2018-11-21T06:16:56.826Z,51.2
2018-11-21T06:26:56.040Z,51.2
2018-11-21T06:36:55.244Z,51.2
2018-11-21T06:46:54.448Z,51.1
2018-11-21T06:56:53.655Z,51.2
2018-11-21T07:06:52.869Z,51.1
2018-11-21T07:16:52.075Z,51.2
2018-11-21T07:26:51.285Z,51.2
2018-11-21T07:36:50.489Z,51.2
2018-11-21T07:46:49.693Z,51.2
2018-11-21T07:56:48.899Z,51.2
2018-11-21T08:06:48.113Z,51.1
2018-11-21T08:16:47.327Z,51.2
2018-11-21T08:26:46.532Z,51.2
2018-11-21T08:36:45.737Z,51.1
2018-11-21T08:46:44.951Z,51.1
2018-11-21T08:56:44.162Z,51.1
2018-11-21T09:06:43.371Z,51.1
2018-11-21T09:16:42.583Z,51.1
2018-11-21T09:26:41.790Z,51.1
2018-11-21T09:36:40.993Z,51.1
2018-11-21T09:46:40.254Z,51.1
2018-11-21T09:56:39.415Z,51
2018-11-21T10:06:38.665Z,51
2018-11-21T10:16:37.830Z,51
2018-11-21T10:26:37.037Z,51
2018-11-21T10:36:36.251Z,51
2018-11-21T10:46:35.463Z,50.9
2018-11-21T10:56:34.662Z,50.9
2018-11-21T11:06:33.874Z,50.9
2018-11-21T11:16:33.086Z,50.9
2018-11-21T11:26:32.297Z,50.9
2018-11-21T11:36:31.498Z,50.8
2018-11-21T11:46:30.717Z,50.7
2018-11-21T11:56:29.920Z,50.4
2018-11-21T12:06:29.124Z,50.3
2018-11-21T12:16:28.335Z,50.4
2018-11-21T12:26:27.536Z,50.3
2018-11-21T12:36:26.752Z,50.3
2018-11-21T12:46:25.981Z,50.3
2018-11-21T12:56:25.163Z,50.4
2018-11-21T13:06:24.368Z,50.2
2018-11-21T13:16:23.581Z,50.3
2018-11-21T13:26:22.790Z,50.3
2018-11-21T13:36:21.993Z,50.1
2018-11-21T13:46:21.202Z,50.3
2018-11-21T13:56:20.453Z,50.2
2018-11-21T14:06:19.611Z,50.2
2018-11-21T14:16:18.817Z,49.3
2018-11-21T14:26:18.033Z,49.2
2018-11-21T14:36:17.246Z,48.9
2018-11-21T14:46:16.452Z,49
2018-11-21T14:56:15.663Z,48.9
2018-11-21T15:06:14.946Z,48.9
2018-11-21T15:16:14.077Z,48.9
2018-11-21T15:26:13.285Z,48.8
2018-11-21T15:36:12.510Z,48.8
2018-11-21T15:46:11.723Z,48.7
2018-11-21T15:56:10.933Z,48.6
2018-11-21T16:06:10.133Z,48.6
2018-11-21T16:16:09.334Z,48.6
2018-11-21T16:26:08.546Z,48.5
2018-11-21T16:36:07.749Z,48.4
2018-11-21T16:46:06.967Z,47.8
2018-11-21T16:56:06.171Z,47.6
2018-11-21T17:06:05.378Z,40.6
2018-11-21T17:16:04.583Z,31.6
2018-11-21T17:26:03.793Z,32.3
2018-11-21T17:36:02.998Z,32.7
2018-11-21T17:46:04.044Z,32.7
2018-11-21T17:56:01.419Z,32.9
2018-11-21T18:06:00.624Z,33.2
2018-11-21T18:15:59.833Z,27.8
2018-11-21T18:25:59.040Z,25.9
2018-11-21T18:35:58.253Z,26.1
2018-11-21T18:45:57.460Z,26.2
2018-11-21T18:55:56.674Z,26.6
2018-11-21T19:05:55.876Z,26.8
2018-11-21T19:15:55.089Z,26.9
2018-11-21T19:25:54.286Z,27.2
2018-11-21T19:35:53.495Z,24.3
2018-11-21T19:45:52.710Z,23.9
2018-11-21T19:55:51.921Z,24.2
2018-11-21T20:05:51.129Z,24.5
2018-11-21T20:15:50.341Z,25.1
2018-11-21T20:25:49.550Z,25.8
2018-11-21T20:35:48.766Z,26.6
2018-11-21T20:45:47.972Z,27.1
2018-11-21T20:55:47.186Z,27.9
2018-11-21T21:05:46.396Z,26.5
2018-11-21T21:15:45.604Z,27.2
2018-11-21T21:25:44.862Z,28.1
2018-11-21T21:35:44.029Z,29.1
2018-11-21T21:45:43.229Z,29.9
2018-11-21T21:55:42.432Z,30.8
2018-11-21T22:05:41.651Z,31.7
2018-11-21T22:15:40.854Z,32.6
2018-11-21T22:25:40.062Z,33.4
2018-11-21T22:35:39.270Z,34.3
2018-11-21T22:45:38.473Z,35.1
2018-11-21T22:55:37.687Z,35.9
2018-11-21T23:05:37.668Z,36.8
2018-11-21T23:15:36.095Z,37.6
2018-11-21T23:25:35.304Z,38.3
2018-11-21T23:35:34.515Z,39.1
2018-11-21T23:45:33.721Z,39.8
2018-11-21T23:55:32.932Z,40.6
